BNE weather

Brisbane International Airport
Brisbane, Queensland, Australia

Public forecast

Using degrees Celsius for public forecast. Weather courtesy of forecast.io.

Current aviation weather report (METAR) for Brisbane International Airport

Retrieved 2019/11/15 11:30 UTC (9 minutes ago):

YBBN 151130Z 01015KT CAVOK 24/21 Q1012 FM1300 34008KT 8000 FU FEW020

Aviation forecast (TAF) for Brisbane International Airport

Retrieved 2019/11/15 06:00 UTC (6 hours ago):

TAF YBBN 150507Z 1506/1612 02018KT 8000 FU FEW035 FM151200 34008KT 8000 FU FEW020 FM160000 03014KT 8000 FU FEW030 FM161000 16008KT 8000 FU SCT015